Aviation Digital Data Service (ADDS)

Output produced by METARs form (1750 UTC 01 April 2015)
found at http://aviationweather.gov/adds/metars/
 
KPBG 011726Z 0118/0218 06009KT P6SM SCT250 
     FM020000 VRB03KT P6SM SCT250 
     FM021000 VRB03KT P6SM BKN100 OVC150 
     FM021400 14007G14KT P6SM OVC035